• Join FlightAware (Why Join?)
  • Login
  • US Flag 
Gobble Gobble! 
03:29AM EST


 

Airport Tracker/Info


-or-


 

Live Flight TrackerFlight Track Log ✈ N960DL ✈ 04-Dec-2013 ✈ KDTW - KGRR

Flight Track Log - Related Links

Times and Time Zones

All times are in EST time to prevent confusion due to time zone crossing. See the N960DL flight status page for this flight to view local times or setup timezone preferences in your user account.

Time Position Orientation Groundspeed Altitude Reporting Facility
EST Latitude Longitude Course Direction KTS MPH feet Rate Location/Type
08:10PM 42.2058 -83.3700 270° West 155 178 1,500  Level Cleveland Center
08:12PM 42.1656 -83.4128 218° Southwest 200 230 4,000 2,160 Climbing Cleveland Center
08:12PM 42.1533 -83.4244 215° Southwest 222 255 4,400 3,000 Climbing Cleveland Center
08:13PM 42.3188 -83.6871 285° West  Level Estimated
08:13PM 42.1125 -83.4681 218° Southwest 236 272 7,100  Level Cleveland Center
08:13PM 42.1086 -83.4856 253° West 240 276 7,700 2,580 Climbing Cleveland Center
08:14PM 42.3541 -83.7986 294° West  Level Estimated
08:14PM 42.1311 -83.5572 293° West 260 299 9,800  Level Cleveland Center
08:15PM 42.3893 -83.9102 270° West  Level Estimated
08:15PM 42.1789 -83.6625 302° West 281 323 10,000  Level Cleveland Center
08:16PM 42.4243 -84.0219 270° West  Level Estimated
08:16PM 42.2247 -83.7603 302° West 304 350 12,600  Level Cleveland Center
08:17PM 42.2731 -83.8619 303° West 316 364 15,600 1,680 Climbing Cleveland Center
08:18PM 42.3228 -83.9683 302° West 331 381 16,100 240 Climbing Cleveland Center
08:19PM 42.3733 -84.0772 302° West 340 391 16,100  Level Cleveland Center
08:20PM 42.4236 -84.1847 302° West 340 391 16,100 -600 Level Cleveland Center
08:21PM 42.4464 -84.3039 285° West 337 388 14,900 -1,500 Descending Cleveland Center
08:21PM 42.4750 -84.3764 298° West 339 390 13,800 -1,860 Descending Chicago Center
08:22PM 42.5186 -84.4867 298° West 332 382 12,100 -1,500 Descending Chicago Center
08:24PM 42.5625 -84.5994 298° West 337 388 10,800 -960 Descending Chicago Center
08:25PM 42.6039 -84.7094 297° West 332 382 10,100 -420 Descending Chicago Center
08:26PM 42.6442 -84.8119 298° West 316 364 10,000 -780 Descending Chicago Center
08:27PM 42.6925 -84.8908 310° West 284 327 8,600 -1,740 Descending Chicago Center
08:28PM 42.7586 -84.9781 316° Northwest 277 319 6,500 -1,800 Descending Chicago Center
08:29PM 42.8156 -85.0494 317° Northwest 279 321 5,000 -1,560 Descending Chicago Center
08:30PM 42.8711 -85.1156 319° Northwest 272 313 3,300 -1,140 Descending Chicago Center
08:31PM 42.9086 -85.1950 303° West 262 302 2,700 -300 Descending Chicago Center
08:32PM 42.9075 -85.2725 269° West 226 260 2,700  Level Chicago Center
08:33PM 42.8986 -85.3403 260° West 201 231 2,700 -300 Level Chicago Center
08:34PM 42.8914 -85.4097 262° West 173 199 2,200 -540 Descending Chicago Center
08:35PM 42.8853 -85.4594 260° West 152 175 1,600 -540 Descending Chicago Center
08:36PM 42.8797 -85.5053 261° West 145 167 1,100 -480 Descending Chicago Center